CheckWX is a tool to help pilots better visualize weather data.  It is not intended as a substitute for an official pre-flight weather briefing.

22:17:06 UTC

KMVY METAR
Martha's Vineyard Airport
Vineyard Haven, Massachusetts, USA
Current

24 mins ago

KMVY 242153Z 06014KT 9SM OVC021 12/08 A3027 RMK AO2 SLP249 T01220083
Observed
May-24 @ 21:53 UTC
Wind
  • 060° at 14 KTS
Visibility
Flight Rules
MVFR
Cloud Levels
  • Overcast at 2,100' AGL
Temperature
12°C / 54°F
Dewpoint
C / 46°F
Humidity
77%
Altimeter
30.27" Hg
Pressure
1025.02 hPa
Previous

1 hour ago

KMVY 242110Z 07015G21KT 9SM SCT013 OVC020 13/08 A3027 RMK AO2 T01280083
Observed
May-24 @ 21:10 UTC
Wind
  • 070° at 15 KTS
  • Gusting to 21 KTS
Visibility
Flight Rules
MVFR
Cloud Levels
  • Scattered at 1,300' AGL
  • Overcast at 2,000' AGL
Temperature
13°C / 55°F
Dewpoint
C / 46°F
Humidity
72%
Altimeter
30.27" Hg
Pressure
1025.02 hPa
Previous

1 hour ago

KMVY 242053Z 07014KT 9SM OVC016 13/08 A3027 RMK AO2 SLP251 T01280083 55007
Observed
May-24 @ 20:53 UTC
Wind
  • 070° at 14 KTS
Visibility
Flight Rules
MVFR
Cloud Levels
  • Overcast at 1,600' AGL
Temperature
13°C / 55°F
Dewpoint
C / 46°F
Humidity
72%
Altimeter
30.27" Hg
Pressure
1025.02 hPa